createdAt,value
2022-12-23T00:01:02.085Z,7.00
2022-12-23T00:03:32.774Z,7.00
2022-12-23T00:06:00.837Z,7.30
2022-12-23T00:08:29.139Z,7.20
2022-12-23T00:10:59.764Z,7.10
2022-12-23T00:13:47.669Z,7.00
2022-12-23T00:16:15.124Z,7.00
2022-12-23T00:18:44.062Z,7.10
2022-12-23T00:21:14.023Z,7.00
2022-12-23T00:23:43.179Z,7.00
2022-12-23T00:26:20.834Z,6.90
2022-12-23T00:28:47.690Z,6.60
2022-12-23T00:31:19.221Z,7.00
2022-12-23T00:33:47.733Z,6.80
2022-12-23T00:36:18.307Z,7.00
2022-12-23T00:39:04.089Z,7.00
2022-12-23T00:41:49.016Z,7.00
2022-12-23T00:44:15.710Z,6.90
2022-12-23T00:46:42.354Z,7.00
2022-12-23T00:49:30.275Z,7.00
2022-12-23T00:51:57.680Z,7.00
2022-12-23T00:54:24.693Z,7.00
2022-12-23T00:56:51.335Z,6.90
2022-12-23T00:59:18.463Z,7.00
2022-12-23T01:01:59.970Z,7.00
2022-12-23T01:04:45.091Z,7.00
2022-12-23T01:07:12.886Z,7.00
2022-12-23T01:09:39.547Z,7.00
2022-12-23T01:12:06.423Z,7.00
2022-12-23T01:14:33.113Z,6.90
2022-12-23T01:17:00.014Z,7.00
2022-12-23T01:19:27.381Z,7.10
2022-12-23T01:21:54.274Z,6.80
2022-12-23T01:24:21.999Z,7.00
2022-12-23T01:26:48.654Z,7.00
2022-12-23T01:29:15.287Z,7.10
2022-12-23T01:31:41.969Z,7.00
2022-12-23T01:34:09.754Z,7.30
2022-12-23T01:36:36.461Z,7.00
2022-12-23T01:39:03.377Z,7.00
2022-12-23T01:41:50.763Z,7.00
2022-12-23T01:44:53.417Z,7.10
2022-12-23T01:47:25.779Z,7.00
2022-12-23T01:49:56.894Z,7.00
2022-12-23T01:52:24.158Z,7.00
2022-12-23T01:54:51.521Z,7.00
2022-12-23T01:57:18.923Z,7.00
2022-12-23T02:00:03.539Z,6.90
2022-12-23T02:03:01.513Z,7.00
2022-12-23T02:05:28.462Z,7.00
2022-12-23T02:08:14.806Z,7.00
2022-12-23T02:10:58.553Z,6.90
2022-12-23T02:13:32.000Z,6.90
2022-12-23T02:16:17.143Z,7.00
2022-12-23T02:19:09.811Z,7.00
2022-12-23T02:21:46.781Z,7.00
2022-12-23T02:25:04.695Z,7.00
2022-12-23T02:27:34.092Z,7.00
2022-12-23T02:30:29.888Z,7.10
2022-12-23T02:33:25.690Z,7.00
2022-12-23T02:35:59.272Z,7.00
2022-12-23T02:38:32.131Z,7.10
2022-12-23T02:41:10.691Z,7.10
2022-12-23T02:43:43.249Z,7.10
2022-12-23T02:46:16.609Z,7.10
2022-12-23T02:48:48.589Z,7.10
2022-12-23T02:51:15.850Z,7.10
2022-12-23T02:53:47.372Z,7.30
2022-12-23T02:56:15.496Z,7.10
2022-12-23T02:58:46.496Z,7.00
2022-12-23T03:01:15.849Z,7.00
2022-12-23T03:03:43.943Z,7.00
2022-12-23T03:06:19.451Z,7.00
2022-12-23T03:08:47.118Z,7.00
2022-12-23T03:11:15.799Z,7.00
2022-12-23T03:14:16.402Z,7.10
2022-12-23T03:16:53.289Z,7.10
2022-12-23T03:19:26.039Z,7.00
2022-12-23T03:22:00.184Z,7.00
2022-12-23T03:24:35.934Z,7.10
2022-12-23T03:27:07.645Z,7.00
2022-12-23T03:29:41.105Z,7.00
2022-12-23T03:32:11.864Z,7.00
2022-12-23T03:34:42.830Z,7.00
2022-12-23T03:37:12.636Z,7.00
2022-12-23T03:39:46.347Z,7.00
2022-12-23T03:42:18.256Z,7.00
2022-12-23T03:45:19.054Z,7.00
2022-12-23T03:47:41.336Z,7.00
2022-12-23T03:50:11.767Z,7.10
2022-12-23T03:52:41.622Z,7.10
2022-12-23T03:55:14.891Z,7.10
2022-12-23T03:57:46.680Z,6.80
2022-12-23T04:00:13.724Z,7.00
2022-12-23T04:02:51.558Z,7.00
2022-12-23T04:05:24.649Z,7.10
2022-12-23T04:07:56.813Z,7.00
2022-12-23T04:10:24.719Z,7.00
2022-12-23T04:12:51.632Z,7.10
2022-12-23T04:15:22.463Z,7.10
2022-12-23T04:17:50.582Z,7.10
2022-12-23T04:20:17.689Z,7.10
2022-12-23T04:22:44.527Z,7.20
2022-12-23T04:25:11.589Z,7.10
2022-12-23T04:27:38.259Z,7.10
2022-12-23T04:30:07.367Z,7.20
2022-12-23T04:32:34.225Z,7.20
2022-12-23T04:35:01.824Z,6.80
2022-12-23T04:37:28.759Z,7.10
2022-12-23T04:39:55.537Z,7.10
2022-12-23T04:42:22.179Z,7.10
2022-12-23T04:44:48.800Z,7.00
2022-12-23T04:47:15.436Z,7.10
2022-12-23T04:49:42.024Z,7.20
2022-12-23T04:52:09.296Z,7.20
2022-12-23T04:54:40.536Z,7.10
2022-12-23T04:57:10.629Z,7.20
2022-12-23T04:59:37.263Z,7.10
2022-12-23T05:02:04.066Z,7.20
2022-12-23T05:04:31.177Z,7.20
2022-12-23T05:06:57.852Z,7.10
2022-12-23T05:09:25.289Z,7.20
2022-12-23T05:11:51.875Z,7.20
2022-12-23T05:14:18.487Z,7.20
2022-12-23T05:16:45.135Z,7.20
2022-12-23T05:19:11.873Z,7.10
2022-12-23T05:21:38.519Z,7.50
2022-12-23T05:24:05.544Z,7.20
2022-12-23T05:26:32.816Z,7.10
2022-12-23T05:28:59.605Z,7.20
2022-12-23T05:31:26.600Z,7.20
2022-12-23T05:34:00.834Z,7.20
2022-12-23T05:36:30.861Z,7.30
2022-12-23T05:38:57.592Z,7.20
2022-12-23T05:41:24.282Z,7.20
2022-12-23T05:43:51.617Z,7.20
2022-12-23T05:46:24.359Z,7.20
2022-12-23T05:48:53.009Z,7.20
2022-12-23T05:51:19.688Z,7.20
2022-12-23T05:53:46.315Z,8.30
2022-12-23T05:56:13.013Z,7.30
2022-12-23T05:58:39.634Z,7.20
2022-12-23T06:01:07.440Z,7.20
2022-12-23T06:03:34.285Z,7.30
2022-12-23T06:06:01.165Z,7.30
2022-12-23T06:08:27.795Z,7.30
2022-12-23T06:10:54.620Z,7.20
2022-12-23T06:13:21.217Z,7.30
2022-12-23T06:15:48.008Z,7.30
2022-12-23T06:18:15.254Z,7.30
2022-12-23T06:20:44.696Z,7.20
2022-12-23T06:23:11.610Z,7.20
2022-12-23T06:25:38.251Z,7.20
2022-12-23T06:28:06.872Z,7.20
2022-12-23T06:30:33.658Z,7.30
2022-12-23T06:33:00.303Z,7.30
2022-12-23T06:35:27.689Z,7.30
2022-12-23T06:37:54.402Z,7.20
2022-12-23T06:40:21.036Z,7.30
2022-12-23T06:42:47.684Z,7.30
2022-12-23T06:45:14.499Z,7.30
2022-12-23T06:47:41.180Z,7.30
2022-12-23T06:50:08.718Z,7.30
2022-12-23T06:52:36.113Z,7.30
2022-12-23T06:55:02.894Z,7.30
2022-12-23T06:57:29.530Z,7.30
2022-12-23T06:59:56.711Z,7.30
2022-12-23T07:02:23.619Z,7.40
2022-12-23T07:04:50.305Z,7.40
2022-12-23T07:07:16.956Z,8.20
2022-12-23T07:09:44.332Z,7.40
2022-12-23T07:12:10.957Z,7.40
2022-12-23T07:14:37.585Z,7.40
2022-12-23T07:17:04.277Z,7.40
2022-12-23T07:19:31.060Z,7.30
2022-12-23T07:21:57.701Z,7.40
2022-12-23T07:24:24.346Z,7.10
2022-12-23T07:26:51.787Z,7.40
2022-12-23T07:29:18.425Z,7.40
2022-12-23T07:31:45.159Z,7.50
2022-12-23T07:34:11.889Z,7.40
2022-12-23T07:36:38.565Z,7.50
2022-12-23T07:39:05.557Z,7.60
2022-12-23T07:41:32.487Z,7.50
2022-12-23T07:43:59.936Z,7.60
2022-12-23T07:46:26.628Z,7.60
2022-12-23T07:48:53.347Z,7.60
2022-12-23T07:51:20.090Z,7.60
2022-12-23T07:53:49.022Z,7.60
2022-12-23T07:56:15.814Z,7.60
2022-12-23T07:58:42.620Z,7.60
2022-12-23T08:01:10.032Z,7.60
2022-12-23T08:03:36.941Z,7.60
2022-12-23T08:06:06.173Z,7.60
2022-12-23T08:08:33.139Z,7.70
2022-12-23T08:11:04.048Z,7.60
2022-12-23T08:13:32.195Z,7.60
2022-12-23T08:16:01.600Z,7.60
2022-12-23T08:18:31.887Z,7.70
2022-12-23T08:20:59.880Z,7.70
2022-12-23T08:23:27.846Z,7.60
2022-12-23T08:26:03.737Z,7.70
2022-12-23T08:28:31.300Z,7.70
2022-12-23T08:31:05.008Z,7.80
2022-12-23T08:33:32.522Z,7.80
2022-12-23T08:35:59.360Z,7.80
2022-12-23T08:38:26.209Z,7.70
2022-12-23T08:40:52.905Z,7.80
2022-12-23T08:43:19.515Z,8.10
2022-12-23T08:45:46.272Z,7.70
2022-12-23T08:48:13.528Z,8.00
2022-12-23T08:50:42.579Z,7.80
2022-12-23T08:53:10.080Z,7.70
2022-12-23T08:55:38.057Z,7.80
2022-12-23T08:58:05.198Z,7.80
2022-12-23T09:00:32.385Z,8.00
2022-12-23T09:02:59.279Z,7.70
2022-12-23T09:05:31.331Z,7.80
2022-12-23T09:07:58.756Z,7.80
2022-12-23T09:10:25.852Z,7.80
2022-12-23T09:12:52.569Z,7.80
2022-12-23T09:15:19.207Z,7.90
2022-12-23T09:17:45.847Z,7.90
2022-12-23T09:20:12.805Z,7.90
2022-12-23T09:22:39.783Z,7.90
2022-12-23T09:25:07.715Z,7.90
2022-12-23T09:27:34.527Z,7.90
2022-12-23T09:30:01.231Z,8.10
2022-12-23T09:32:27.897Z,8.00
2022-12-23T09:34:54.527Z,8.00
2022-12-23T09:37:21.277Z,8.10
2022-12-23T09:39:48.245Z,8.00
2022-12-23T09:42:27.953Z,8.00
2022-12-23T09:45:06.158Z,8.00
2022-12-23T09:47:33.885Z,8.00
2022-12-23T09:50:03.593Z,8.00
2022-12-23T09:52:37.541Z,8.00
2022-12-23T09:55:06.333Z,7.90
2022-12-23T09:57:40.079Z,8.00
2022-12-23T10:00:13.529Z,8.00
2022-12-23T10:02:53.985Z,8.10
2022-12-23T10:05:30.195Z,8.10
2022-12-23T10:08:01.986Z,8.00
2022-12-23T10:10:36.393Z,8.00
2022-12-23T10:13:07.600Z,8.00
2022-12-23T10:15:37.349Z,8.00
2022-12-23T10:18:07.275Z,8.00
2022-12-23T10:20:41.466Z,8.20
2022-12-23T10:23:15.647Z,8.00
2022-12-23T10:25:49.218Z,8.00
2022-12-23T10:28:17.615Z,8.10
2022-12-23T10:31:17.115Z,8.20
2022-12-23T10:33:51.969Z,8.20
2022-12-23T10:36:27.667Z,8.10
2022-12-23T10:39:02.658Z,8.10
2022-12-23T10:41:37.549Z,8.20
2022-12-23T10:44:24.793Z,8.30
2022-12-23T10:47:00.343Z,8.50
2022-12-23T10:49:38.980Z,8.30
2022-12-23T10:52:12.482Z,8.40
2022-12-23T10:54:41.232Z,8.50
2022-12-23T10:57:11.306Z,8.70
2022-12-23T10:59:40.672Z,8.80
2022-12-23T11:02:28.185Z,8.80
2022-12-23T11:04:55.069Z,8.60
2022-12-23T11:07:43.967Z,8.50
2022-12-23T11:10:19.295Z,8.40
2022-12-23T11:12:52.324Z,8.50
2022-12-23T11:15:29.562Z,8.80
2022-12-23T11:18:01.544Z,8.60
2022-12-23T11:20:28.905Z,8.70
2022-12-23T11:22:59.183Z,8.50
2022-12-23T11:25:29.326Z,8.50
2022-12-23T11:27:59.369Z,8.60
2022-12-23T11:30:27.885Z,8.50
2022-12-23T11:32:54.848Z,8.30
2022-12-23T11:35:27.366Z,8.30
2022-12-23T11:37:54.816Z,8.30
2022-12-23T11:40:24.721Z,8.30
2022-12-23T11:42:56.865Z,8.30
2022-12-23T11:45:27.000Z,8.40
2022-12-23T11:47:54.023Z,8.40
2022-12-23T11:50:33.671Z,8.30
2022-12-23T11:53:18.555Z,7.70
2022-12-23T11:55:56.382Z,8.30
2022-12-23T11:58:24.527Z,8.30
2022-12-23T12:00:56.175Z,8.40
2022-12-23T12:03:27.183Z,8.40
2022-12-23T12:05:57.484Z,8.40
2022-12-23T12:08:28.260Z,8.40
2022-12-23T12:11:02.023Z,8.40
2022-12-23T12:13:30.611Z,7.90
2022-12-23T12:16:10.699Z,8.60
2022-12-23T12:18:39.505Z,8.40
2022-12-23T12:21:10.778Z,8.40
2022-12-23T12:23:43.472Z,8.30
2022-12-23T12:26:16.573Z,8.30
2022-12-23T12:28:46.366Z,8.30
2022-12-23T12:31:21.080Z,8.30
2022-12-23T12:33:51.593Z,8.30
2022-12-23T12:36:30.098Z,8.30
2022-12-23T12:38:59.316Z,8.30
2022-12-23T12:41:32.378Z,8.40
2022-12-23T12:44:09.651Z,8.40
2022-12-23T12:46:43.087Z,8.50
2022-12-23T12:49:15.212Z,8.50
2022-12-23T12:51:48.961Z,8.80
2022-12-23T12:54:22.751Z,8.90
2022-12-23T12:56:53.422Z,7.80
2022-12-23T12:59:25.001Z,9.10
2022-12-23T13:02:04.593Z,8.80
2022-12-23T13:05:01.992Z,9.50
2022-12-23T13:07:38.496Z,10.10
2022-12-23T13:10:16.001Z,10.50
2022-12-23T13:12:57.424Z,11.20
2022-12-23T13:15:30.061Z,11.80
2022-12-23T13:18:15.227Z,11.10
2022-12-23T13:20:48.234Z,10.00
2022-12-23T13:23:42.348Z,9.30
2022-12-23T13:26:17.751Z,10.30
2022-12-23T13:28:53.941Z,8.60
2022-12-23T13:31:40.037Z,8.50
2022-12-23T13:34:22.098Z,8.40
2022-12-23T13:36:57.021Z,8.30
2022-12-23T13:39:35.444Z,8.30
2022-12-23T13:42:06.038Z,8.30
2022-12-23T13:44:34.288Z,8.20
2022-12-23T13:47:10.204Z,8.30
2022-12-23T13:49:51.621Z,8.30
2022-12-23T13:52:30.379Z,8.30
2022-12-23T13:55:04.841Z,8.30
2022-12-23T13:57:49.157Z,8.30
2022-12-23T14:00:29.052Z,8.30
2022-12-23T14:03:33.064Z,8.30
2022-12-23T14:06:20.524Z,8.20
2022-12-23T14:08:47.723Z,8.20
2022-12-23T14:11:19.366Z,8.20
2022-12-23T14:13:54.450Z,8.20
2022-12-23T14:16:45.943Z,8.20
2022-12-23T14:19:37.048Z,8.20
2022-12-23T14:22:20.847Z,8.10
2022-12-23T14:25:11.229Z,8.20
2022-12-23T14:27:50.328Z,8.10
2022-12-23T14:30:23.928Z,8.20
2022-12-23T14:32:53.066Z,8.40
2022-12-23T14:35:26.868Z,8.20
2022-12-23T14:38:25.690Z,8.20
2022-12-23T14:41:17.511Z,8.20
2022-12-23T14:43:59.098Z,8.20
2022-12-23T14:46:56.965Z,8.20
2022-12-23T14:49:42.516Z,8.20
2022-12-23T14:52:50.767Z,8.20
2022-12-23T14:55:41.182Z,8.20
2022-12-23T14:58:21.211Z,8.20
2022-12-23T15:00:50.574Z,8.10
2022-12-23T15:03:19.535Z,8.10
2022-12-23T15:05:46.627Z,8.30
2022-12-23T15:08:26.185Z,8.10
2022-12-23T15:10:55.434Z,8.10
2022-12-23T15:13:24.689Z,8.10
2022-12-23T15:15:56.065Z,8.00
2022-12-23T15:18:26.759Z,8.10
2022-12-23T15:21:01.399Z,8.10
2022-12-23T15:23:28.156Z,8.00
2022-12-23T15:25:57.685Z,7.80
2022-12-23T15:28:34.532Z,8.00
2022-12-23T15:31:01.410Z,8.00
2022-12-23T15:36:26.095Z,8.00
2022-12-23T15:38:52.925Z,8.00
2022-12-23T15:41:21.866Z,8.10
2022-12-23T15:43:49.148Z,8.00
2022-12-23T15:46:21.944Z,8.50
2022-12-23T15:48:52.231Z,7.90
2022-12-23T15:51:50.002Z,7.90
2022-12-23T15:54:22.266Z,7.80
2022-12-23T15:56:52.329Z,7.90
2022-12-23T15:59:24.274Z,7.80
2022-12-23T16:01:51.223Z,7.80
2022-12-23T16:04:21.804Z,7.80
2022-12-23T16:06:50.517Z,7.70
2022-12-23T16:09:32.343Z,7.70
2022-12-23T16:12:01.343Z,7.70
2022-12-23T16:14:39.469Z,7.70
2022-12-23T16:17:23.065Z,7.70
2022-12-23T16:19:51.235Z,7.60
2022-12-23T16:22:27.269Z,7.60
2022-12-23T16:25:07.393Z,5.50
2022-12-23T16:27:38.131Z,7.60
2022-12-23T16:30:11.020Z,7.70
2022-12-23T16:32:47.726Z,7.70
2022-12-23T16:35:26.344Z,7.70
2022-12-23T16:37:57.666Z,7.70
2022-12-23T16:40:24.319Z,7.70
2022-12-23T16:42:51.595Z,7.80
2022-12-23T16:45:18.233Z,7.70
2022-12-23T16:47:45.016Z,7.70
2022-12-23T16:50:14.293Z,7.50
2022-12-23T16:52:41.059Z,7.70
2022-12-23T16:55:16.623Z,7.70
2022-12-23T16:57:44.617Z,7.80
2022-12-23T17:00:16.301Z,7.80
2022-12-23T17:02:44.257Z,7.80
2022-12-23T17:05:18.296Z,7.80
2022-12-23T17:07:45.902Z,7.80
2022-12-23T17:10:14.034Z,7.90
2022-12-23T17:12:41.158Z,7.90
2022-12-23T17:15:11.807Z,7.90
2022-12-23T17:17:39.622Z,7.80
2022-12-23T17:20:07.831Z,7.90
2022-12-23T17:22:36.748Z,7.90
2022-12-23T17:25:04.594Z,7.80
2022-12-23T17:27:31.302Z,7.80
2022-12-23T17:29:57.983Z,7.80
2022-12-23T17:32:24.770Z,7.80
2022-12-23T17:34:52.169Z,7.80
2022-12-23T17:37:20.661Z,7.70
2022-12-23T17:39:47.535Z,7.50
2022-12-23T17:42:23.339Z,7.80
2022-12-23T17:44:52.067Z,7.90
2022-12-23T17:47:20.553Z,7.80
2022-12-23T17:49:47.302Z,7.70
2022-12-23T17:52:17.373Z,7.70
2022-12-23T17:54:45.177Z,7.70
2022-12-23T17:57:18.618Z,7.80
2022-12-23T17:59:47.888Z,7.80
2022-12-23T18:02:22.018Z,7.70
2022-12-23T18:04:48.798Z,7.70
2022-12-23T18:07:16.799Z,7.80
2022-12-23T18:09:43.672Z,7.70
2022-12-23T18:12:24.921Z,7.70
2022-12-23T18:14:52.264Z,7.70
2022-12-23T18:17:18.986Z,7.70
2022-12-23T18:19:45.641Z,7.70
2022-12-23T18:22:17.590Z,7.60
2022-12-23T18:24:44.412Z,7.60
2022-12-23T18:27:14.472Z,7.70
2022-12-23T18:29:41.396Z,7.70
2022-12-23T18:32:12.739Z,7.70
2022-12-23T18:34:39.392Z,7.70
2022-12-23T18:37:08.381Z,7.60
2022-12-23T18:39:35.726Z,7.60
2022-12-23T18:42:02.456Z,7.50
2022-12-23T18:44:29.148Z,7.60
2022-12-23T18:46:55.917Z,7.60
2022-12-23T18:49:22.686Z,7.60
2022-12-23T18:51:49.336Z,7.60
2022-12-23T18:54:16.690Z,7.60
2022-12-23T18:56:44.091Z,7.60
2022-12-23T18:59:16.118Z,7.60
2022-12-23T19:01:42.876Z,7.60
2022-12-23T19:04:09.626Z,7.70
2022-12-23T19:06:36.456Z,7.80
2022-12-23T19:09:13.667Z,7.70
2022-12-23T19:11:40.495Z,7.70
2022-12-23T19:14:08.921Z,7.60
2022-12-23T19:16:35.650Z,7.60
2022-12-23T19:19:02.831Z,7.60
2022-12-23T19:21:29.479Z,7.50
2022-12-23T19:23:57.569Z,7.50
2022-12-23T19:26:24.787Z,7.50
2022-12-23T19:28:51.370Z,5.50
2022-12-23T19:31:22.382Z,7.50
2022-12-23T19:33:49.233Z,7.50
2022-12-23T19:36:17.862Z,7.50
2022-12-23T19:38:44.796Z,7.50
2022-12-23T19:41:13.525Z,7.50
2022-12-23T19:43:44.510Z,7.50
2022-12-23T19:46:12.700Z,7.40
2022-12-23T19:48:40.108Z,7.40
2022-12-23T19:51:08.616Z,7.20
2022-12-23T19:53:37.690Z,7.40
2022-12-23T19:56:06.766Z,7.40
2022-12-23T19:58:35.935Z,7.40
2022-12-23T20:01:07.531Z,7.40
2022-12-23T20:03:34.520Z,7.40
2022-12-23T20:06:03.607Z,7.40
2022-12-23T20:08:30.703Z,5.80
2022-12-23T20:11:04.196Z,7.40
2022-12-23T20:13:31.036Z,7.30
2022-12-23T20:15:59.081Z,7.50
2022-12-23T20:18:26.823Z,7.00
2022-12-23T20:20:58.131Z,7.40
2022-12-23T20:23:29.133Z,7.40
2022-12-23T20:25:58.700Z,7.40
2022-12-23T20:28:27.007Z,7.40
2022-12-23T20:31:06.987Z,7.40
2022-12-23T20:33:36.163Z,7.40
2022-12-23T20:36:08.910Z,7.40
2022-12-23T20:38:43.101Z,7.40
2022-12-23T20:41:16.957Z,7.30
2022-12-23T20:44:02.710Z,7.60
2022-12-23T20:46:31.015Z,7.20
2022-12-23T20:49:01.208Z,7.30
2022-12-23T20:51:31.598Z,7.20
2022-12-23T20:54:08.667Z,7.20
2022-12-23T20:56:52.057Z,6.80
2022-12-23T20:59:26.370Z,5.00
2022-12-23T21:01:56.821Z,7.20
2022-12-23T21:04:25.800Z,5.30
2022-12-23T21:07:10.729Z,7.10
2022-12-23T21:09:42.832Z,7.10
2022-12-23T21:12:09.824Z,7.20
2022-12-23T21:14:40.800Z,7.20
2022-12-23T21:17:11.324Z,7.10
2022-12-23T21:19:40.844Z,7.10
2022-12-23T21:22:10.778Z,7.20
2022-12-23T21:24:38.343Z,7.10
2022-12-23T21:29:46.591Z,7.10
2022-12-23T21:32:13.326Z,7.10
2022-12-23T21:34:45.034Z,7.10
2022-12-23T21:37:11.806Z,7.10
2022-12-23T21:39:39.644Z,7.10
2022-12-23T21:42:07.178Z,7.10
2022-12-23T21:44:34.110Z,7.00
2022-12-23T21:47:00.778Z,6.90
2022-12-23T21:49:27.506Z,7.10
2022-12-23T21:51:54.478Z,7.00
2022-12-23T21:54:21.323Z,7.00
2022-12-23T21:56:56.892Z,6.90
2022-12-23T21:59:23.501Z,6.90
2022-12-23T22:01:51.602Z,6.90
2022-12-23T22:04:18.398Z,6.80
2022-12-23T22:06:45.458Z,6.90
2022-12-23T22:09:15.916Z,6.80
2022-12-23T22:11:43.143Z,6.90
2022-12-23T22:14:13.451Z,6.80
2022-12-23T22:16:40.279Z,8.20
2022-12-23T22:19:08.567Z,6.20
2022-12-23T22:21:36.232Z,6.80
2022-12-23T22:24:03.722Z,6.90
2022-12-23T22:26:40.350Z,6.80
2022-12-23T22:29:07.512Z,6.80
2022-12-23T22:31:39.209Z,6.80
2022-12-23T22:34:07.751Z,6.80
2022-12-23T22:36:34.857Z,6.80
2022-12-23T22:39:02.711Z,6.80
2022-12-23T22:41:31.230Z,7.00
2022-12-23T22:43:59.205Z,6.80
2022-12-23T22:46:27.247Z,6.70
2022-12-23T22:48:54.759Z,6.70
2022-12-23T22:51:22.702Z,6.80
2022-12-23T22:53:50.182Z,6.80
2022-12-23T22:56:19.383Z,6.70
2022-12-23T22:58:46.036Z,5.20
2022-12-23T23:01:19.890Z,6.80
2022-12-23T23:03:46.677Z,6.90
2022-12-23T23:06:14.240Z,9.00
2022-12-23T23:08:42.703Z,6.70
2022-12-23T23:11:10.198Z,9.00
2022-12-23T23:13:38.006Z,6.70
2022-12-23T23:16:05.230Z,6.70
2022-12-23T23:18:32.463Z,8.20
2022-12-23T23:21:02.310Z,6.70
2022-12-23T23:23:30.235Z,6.70
2022-12-23T23:26:00.307Z,6.60
2022-12-23T23:28:27.163Z,6.30
2022-12-23T23:31:16.853Z,6.50
2022-12-23T23:33:42.657Z,6.50
2022-12-23T23:36:09.736Z,6.60
2022-12-23T23:38:37.226Z,6.70
2022-12-23T23:41:04.040Z,6.50
2022-12-23T23:43:30.762Z,6.50
2022-12-23T23:45:58.700Z,6.50
2022-12-23T23:48:25.448Z,6.40
2022-12-23T23:50:52.006Z,6.50
2022-12-23T23:53:18.576Z,6.30
2022-12-23T23:55:46.049Z,6.40
2022-12-23T23:58:12.631Z,6.90
